Tibagi, Brazil
Current Conditions -  °F | °C
As of 3:00 PM on Friday 31 Oct 2014 (Local Time) from SBLO Reporting Station
Scattered Clouds Scattered Clouds  
Wind Chill: 91°   Ceiling: Unl
Heat Index: 93°   Visibility: 6mi
Dew Point: 64°   Wind: 9mph
Humidity: 41%   Direction: 350°N
Pressure: 29.94"   Gusts: NA
Location:  24.51°S, 50.41°W
Report Text: SBLO 311700Z 35008KT 9999 SCT030 33/18 Q1014
Loading
Personal Weather Stations






























Interactive Weather Map
Tropical Storm Tracking
New forecast layout! Learn more

10-Day Weather Forecast

Advertisements
Track Severe Weather on mobile